09:17
Airports
Links
Donate
Help keep this website running!
PayPal
Bitcoin
METAR
YBRK 200900Z AUTO 11007KT 9999 -RA SCT080 OVC110 26/21 Q1007
Current Weather Conditions at YBRK
VFR 09:00:00 20-02-18
Automated station, no observer
Altimeter:29.73 hg
Temp:26.0°c 79°f
Dew point:21.0°c 70°f
Wind:7 knots, 8.1 mph, 4 m/s, from 110°
Visibility:6.21 statute miles
11000(OVC) Overcast
8000(SCT) Scattered
Past METAR reports
VFR 08:30:00 20-02-18
Automated station, no observer
Altimeter:29.70 hg
Temp:27.0°c 81°f
Dew point:20.0°c 68°f
Wind:9 knots, 10.4 mph, 5 m/s, from 100°
Visibility:6.21 statute miles
11000(BKN) Broken
YBRK 200830Z AUTO 10009KT 9999 -RA BKN110 27/20 Q1006 RF00.0/000.0
VFR 08:00:00 20-02-18
Automated station, no observer
Altimeter:29.70 hg
Temp:28.0°c 82°f
Dew point:20.0°c 68°f
Wind:10 knots, 11.5 mph, 5 m/s, from 100°
Visibility:6.21 statute miles
11000(BKN) Broken
9000(SCT) Scattered
7900(SCT) Scattered
YBRK 200800Z AUTO 10010KT 9999 // SCT079 SCT090 BKN110 28/20 Q1006
VFR 07:30:00 20-02-18
Automated station, no observer
Altimeter:29.70 hg
Temp:28.0°c 82°f
Dew point:20.0°c 68°f
Wind:11 knots, 12.7 mph, 6 m/s, from 90°
Visibility:6.21 statute miles
11000(BKN) Broken
YBRK 200730Z AUTO 09011KT 9999 // BKN110 28/20 Q1006 RF00.0/000.0
VFR 07:00:00 20-02-18
Automated station, no observer
Altimeter:29.70 hg
Temp:28.0°c 82°f
Dew point:20.0°c 68°f
Wind:10 knots, 11.5 mph, 5 m/s, from 100°
Visibility:6.21 statute miles
11000(OVC) Overcast
6900(SCT) Scattered
4600(SCT) Scattered
YBRK 200700Z AUTO 10010KT 9999 -RA SCT046 SCT069 OVC110 28/20 Q1006
VFR 06:30:00 20-02-18
Automated station, no observer
Altimeter:29.70 hg
Temp:28.0°c 82°f
Dew point:20.0°c 68°f
Wind:12 knots, 13.8 mph, 6 m/s, from 120°
Visibility:6.21 statute miles
10500(OVC) Overcast
5000(SCT) Scattered
3300(SCT) Scattered
YBRK 200630Z AUTO 12012KT 9999 // SCT033 SCT050 OVC105 28/20 Q1006
VFR 06:00:00 20-02-18
Altimeter:29.65 hg
Temp:29.0°c 84°f
Dew point:20.0°c 68°f
Wind:13 knots, 15 mph, 7 m/s, from 80°
Visibility:6.21 statute miles
10000(BKN) Broken
4000(SCT) Scattered
YBRK 200600Z 08013KT 9999 SCT040 BKN100 29/20 Q1004 RF00.0/000.0 LTN TO SW
TAF
TAF AMD YBRK 200536Z 2006/2106 08010KT 9999 -SHRA SCT035 FM201500 17010KT 9999 -SHRA BKN025 FM210000 12012KT 9999 -SHRA BKN030 INTER 2006/2106 VRB15KT 3000 SHRA BKN012 PROB30 TEMPO 2006/2106 VRB20G40KT 2000 TSRA BKN010 SCT040CB
Forecast at YBRK
06:00 20-02-18 to 15:00 20-02-18
-SHRA
Wind:10 Knots from 80°
Visibility:6.21 statute miles
3500SCT Scattered
TEMPO 06:00 20-02-18 to 06:00 21-02-18
SHRA
Wind:15 Knots from 360°
Visibility:1.86 statute miles
1200BKN Broken
TEMPO 06:00 20-02-18 to 06:00 21-02-18
30% TSRA
Wind:20 Knots from 360°
Visibility:1.24 statute miles
1000BKN Broken
4000SCT Scattered
FM 15:00 20-02-18 to 00:00 21-02-18
-SHRA
Wind:10 Knots from 170°
Visibility:6.21 statute miles
2500BKN Broken
FM 00:00 21-02-18 to 06:00 21-02-18
-SHRA
Wind:12 Knots from 120°
Visibility:6.21 statute miles
3000BKN Broken